sensor_id;sensor_type;location;lat;lon;timestamp;P1;durP1;ratioP1;P2;durP2;ratioP2
77868;SDS011;67231;59.144;37.934;2023-04-03T00:00:10;39.95;;;3.65;;
77868;SDS011;67231;59.144;37.934;2023-04-03T00:02:36;21.92;;;3.88;;
77868;SDS011;67231;59.144;37.934;2023-04-03T00:05:03;31.58;;;3.47;;
77868;SDS011;67231;59.144;37.934;2023-04-03T00:07:30;41.53;;;4.00;;
77868;SDS011;67231;59.144;37.934;2023-04-03T00:09:56;46.42;;;3.83;;
77868;SDS011;67231;59.144;37.934;2023-04-03T00:12:23;31.98;;;4.60;;
77868;SDS011;67231;59.144;37.934;2023-04-03T00:14:49;35.13;;;4.40;;
77868;SDS011;67231;59.144;37.934;2023-04-03T00:17:15;29.75;;;3.30;;
77868;SDS011;67231;59.144;37.934;2023-04-03T00:19:42;68.63;;;4.43;;
77868;SDS011;67231;59.144;37.934;2023-04-03T00:22:08;32.83;;;3.60;;
77868;SDS011;67231;59.144;37.934;2023-04-03T00:24:34;22.52;;;2.60;;
77868;SDS011;67231;59.144;37.934;2023-04-03T00:27:00;22.80;;;2.83;;
77868;SDS011;67231;59.144;37.934;2023-04-03T00:29:27;26.55;;;3.33;;
77868;SDS011;67231;59.144;37.934;2023-04-03T00:31:53;30.75;;;2.63;;
77868;SDS011;67231;59.144;37.934;2023-04-03T00:34:20;27.80;;;3.20;;
77868;SDS011;67231;59.144;37.934;2023-04-03T00:36:46;20.95;;;2.47;;
77868;SDS011;67231;59.144;37.934;2023-04-03T00:39:12;44.22;;;3.97;;
77868;SDS011;67231;59.144;37.934;2023-04-03T00:41:39;24.90;;;3.20;;
77868;SDS011;67231;59.144;37.934;2023-04-03T00:49:21;34.05;;;5.47;;
77868;SDS011;67231;59.144;37.934;2023-04-03T00:51:47;13.85;;;3.42;;
77868;SDS011;67231;59.144;37.934;2023-04-03T00:54:13;24.38;;;2.95;;
77868;SDS011;67231;59.144;37.934;2023-04-03T00:56:40;23.85;;;4.25;;
77868;SDS011;67231;59.144;37.934;2023-04-03T00:59:26;32.75;;;4.47;;
77868;SDS011;67231;59.144;37.934;2023-04-03T01:01:57;31.17;;;4.05;;
77868;SDS011;67231;59.144;37.934;2023-04-03T01:04:29;36.17;;;4.57;;
77868;SDS011;67231;59.144;37.934;2023-04-03T01:07:07;57.72;;;4.15;;
77868;SDS011;67231;59.144;37.934;2023-04-03T01:09:47;22.45;;;3.40;;
77868;SDS011;67231;59.144;37.934;2023-04-03T01:14:49;32.63;;;4.15;;
77868;SDS011;67231;59.144;37.934;2023-04-03T01:20:40;21.13;;;2.80;;
77868;SDS011;67231;59.144;37.934;2023-04-03T01:26:04;26.48;;;3.33;;
77868;SDS011;67231;59.144;37.934;2023-04-03T01:28:32;28.60;;;2.90;;
77868;SDS011;67231;59.144;37.934;2023-04-03T01:33:43;54.03;;;3.80;;
77868;SDS011;67231;59.144;37.934;2023-04-03T01:36:14;21.80;;;2.78;;
77868;SDS011;67231;59.144;37.934;2023-04-03T01:38:45;30.77;;;3.90;;
77868;SDS011;67231;59.144;37.934;2023-04-03T01:41:12;37.40;;;3.28;;
77868;SDS011;67231;59.144;37.934;2023-04-03T01:43:39;13.68;;;2.20;;
77868;SDS011;67231;59.144;37.934;2023-04-03T01:46:05;18.23;;;2.78;;
77868;SDS011;67231;59.144;37.934;2023-04-03T01:48:31;23.40;;;4.00;;
77868;SDS011;67231;59.144;37.934;2023-04-03T01:50:58;32.42;;;3.38;;
77868;SDS011;67231;59.144;37.934;2023-04-03T01:53:24;35.42;;;3.67;;
77868;SDS011;67231;59.144;37.934;2023-04-03T01:55:50;25.80;;;2.70;;
77868;SDS011;67231;59.144;37.934;2023-04-03T01:58:17;13.82;;;2.92;;
77868;SDS011;67231;59.144;37.934;2023-04-03T02:00:43;53.85;;;4.65;;
77868;SDS011;67231;59.144;37.934;2023-04-03T02:03:10;19.15;;;3.13;;
77868;SDS011;67231;59.144;37.934;2023-04-03T02:05:36;24.67;;;2.95;;
77868;SDS011;67231;59.144;37.934;2023-04-03T02:08:03;25.98;;;3.22;;
77868;SDS011;67231;59.144;37.934;2023-04-03T02:10:29;20.48;;;2.53;;
77868;SDS011;67231;59.144;37.934;2023-04-03T02:12:56;29.38;;;3.67;;
77868;SDS011;67231;59.144;37.934;2023-04-03T02:15:22;40.13;;;3.67;;
77868;SDS011;67231;59.144;37.934;2023-04-03T02:17:49;26.73;;;3.80;;
77868;SDS011;67231;59.144;37.934;2023-04-03T02:20:15;24.80;;;3.30;;
77868;SDS011;67231;59.144;37.934;2023-04-03T02:22:41;28.83;;;2.95;;
77868;SDS011;67231;59.144;37.934;2023-04-03T02:25:07;32.40;;;2.90;;
77868;SDS011;67231;59.144;37.934;2023-04-03T02:27:34;14.63;;;2.40;;
77868;SDS011;67231;59.144;37.934;2023-04-03T02:30:01;24.27;;;2.70;;
77868;SDS011;67231;59.144;37.934;2023-04-03T02:32:29;41.75;;;3.40;;
77868;SDS011;67231;59.144;37.934;2023-04-03T02:34:56;30.73;;;3.17;;
77868;SDS011;67231;59.144;37.934;2023-04-03T02:37:22;23.88;;;3.65;;
77868;SDS011;67231;59.144;37.934;2023-04-03T02:39:50;26.92;;;2.80;;
77868;SDS011;67231;59.144;37.934;2023-04-03T02:42:16;44.65;;;4.15;;
77868;SDS011;67231;59.144;37.934;2023-04-03T02:44:42;31.25;;;3.08;;
77868;SDS011;67231;59.144;37.934;2023-04-03T02:47:09;45.10;;;3.85;;
77868;SDS011;67231;59.144;37.934;2023-04-03T02:49:35;19.00;;;2.92;;
77868;SDS011;67231;59.144;37.934;2023-04-03T02:52:02;25.13;;;3.40;;
77868;SDS011;67231;59.144;37.934;2023-04-03T02:54:28;32.92;;;4.10;;
77868;SDS011;67231;59.144;37.934;2023-04-03T02:56:59;47.90;;;6.00;;
77868;SDS011;67231;59.144;37.934;2023-04-03T02:59:25;36.70;;;7.50;;
77868;SDS011;67231;59.144;37.934;2023-04-03T03:01:51;32.00;;;8.25;;
77868;SDS011;67231;59.144;37.934;2023-04-03T03:04:18;51.15;;;9.27;;
77868;SDS011;67231;59.144;37.934;2023-04-03T03:06:44;59.83;;;10.60;;
77868;SDS011;67231;59.144;37.934;2023-04-03T03:09:10;71.00;;;11.32;;
77868;SDS011;67231;59.144;37.934;2023-04-03T03:11:36;72.38;;;11.45;;
77868;SDS011;67231;59.144;37.934;2023-04-03T03:14:02;46.58;;;9.85;;
77868;SDS011;67231;59.144;37.934;2023-04-03T03:16:28;53.80;;;8.30;;
77868;SDS011;67231;59.144;37.934;2023-04-03T03:18:56;34.97;;;7.50;;
77868;SDS011;67231;59.144;37.934;2023-04-03T03:21:22;33.38;;;7.30;;
77868;SDS011;67231;59.144;37.934;2023-04-03T03:23:48;39.30;;;6.68;;
77868;SDS011;67231;59.144;37.934;2023-04-03T03:26:14;41.25;;;5.88;;
77868;SDS011;67231;59.144;37.934;2023-04-03T03:28:41;35.80;;;6.50;;
77868;SDS011;67231;59.144;37.934;2023-04-03T03:31:07;36.70;;;6.38;;
77868;SDS011;67231;59.144;37.934;2023-04-03T03:33:36;34.15;;;5.82;;
77868;SDS011;67231;59.144;37.934;2023-04-03T03:36:03;46.05;;;5.93;;
77868;SDS011;67231;59.144;37.934;2023-04-03T03:38:29;73.72;;;8.23;;
77868;SDS011;67231;59.144;37.934;2023-04-03T03:40:57;31.10;;;6.78;;
77868;SDS011;67231;59.144;37.934;2023-04-03T03:43:23;40.25;;;7.95;;
77868;SDS011;67231;59.144;37.934;2023-04-03T03:45:52;52.83;;;6.75;;
77868;SDS011;67231;59.144;37.934;2023-04-03T03:48:19;54.47;;;7.13;;
77868;SDS011;67231;59.144;37.934;2023-04-03T03:50:47;55.03;;;5.53;;
77868;SDS011;67231;59.144;37.934;2023-04-03T03:53:14;51.47;;;5.85;;
77868;SDS011;67231;59.144;37.934;2023-04-03T03:55:41;52.40;;;4.68;;
77868;SDS011;67231;59.144;37.934;2023-04-03T03:58:08;16.15;;;2.60;;
77868;SDS011;67231;59.144;37.934;2023-04-03T04:00:35;25.08;;;3.03;;
77868;SDS011;67231;59.144;37.934;2023-04-03T04:03:01;71.93;;;5.53;;
77868;SDS011;67231;59.144;37.934;2023-04-03T04:05:29;40.90;;;4.63;;
77868;SDS011;67231;59.144;37.934;2023-04-03T04:07:57;28.20;;;4.40;;
77868;SDS011;67231;59.144;37.934;2023-04-03T04:10:24;31.92;;;3.67;;
77868;SDS011;67231;59.144;37.934;2023-04-03T04:12:51;39.53;;;3.45;;
77868;SDS011;67231;59.144;37.934;2023-04-03T04:15:20;66.32;;;4.50;;
77868;SDS011;67231;59.144;37.934;2023-04-03T04:17:48;65.25;;;4.30;;
77868;SDS011;67231;59.144;37.934;2023-04-03T04:20:15;33.58;;;3.20;;
77868;SDS011;67231;59.144;37.934;2023-04-03T04:22:41;44.05;;;3.88;;
77868;SDS011;67231;59.144;37.934;2023-04-03T04:25:08;34.78;;;3.63;;
77868;SDS011;67231;59.144;37.934;2023-04-03T04:27:36;41.95;;;4.13;;
77868;SDS011;67231;59.144;37.934;2023-04-03T04:30:03;51.72;;;3.95;;
77868;SDS011;67231;59.144;37.934;2023-04-03T04:32:31;50.35;;;4.88;;
77868;SDS011;67231;59.144;37.934;2023-04-03T04:34:57;53.03;;;5.45;;
77868;SDS011;67231;59.144;37.934;2023-04-03T04:37:24;45.22;;;4.57;;
77868;SDS011;67231;59.144;37.934;2023-04-03T04:39:51;40.40;;;4.03;;
77868;SDS011;67231;59.144;37.934;2023-04-03T04:42:17;34.90;;;4.10;;
77868;SDS011;67231;59.144;37.934;2023-04-03T04:44:46;21.80;;;3.28;;
77868;SDS011;67231;59.144;37.934;2023-04-03T04:47:13;36.92;;;3.50;;
77868;SDS011;67231;59.144;37.934;2023-04-03T04:49:40;36.10;;;5.65;;
77868;SDS011;67231;59.144;37.934;2023-04-03T04:52:07;53.83;;;6.78;;
77868;SDS011;67231;59.144;37.934;2023-04-03T04:54:34;40.70;;;3.97;;
77868;SDS011;67231;59.144;37.934;2023-04-03T04:57:00;46.63;;;4.55;;
77868;SDS011;67231;59.144;37.934;2023-04-03T04:59:28;33.92;;;4.50;;
77868;SDS011;67231;59.144;37.934;2023-04-03T05:01:56;35.25;;;6.03;;
77868;SDS011;67231;59.144;37.934;2023-04-03T05:04:23;30.13;;;4.68;;
77868;SDS011;67231;59.144;37.934;2023-04-03T05:06:54;30.23;;;3.13;;
77868;SDS011;67231;59.144;37.934;2023-04-03T05:09:24;32.35;;;5.50;;
77868;SDS011;67231;59.144;37.934;2023-04-03T05:11:52;22.05;;;4.03;;
77868;SDS011;67231;59.144;37.934;2023-04-03T05:14:21;35.90;;;4.47;;
77868;SDS011;67231;59.144;37.934;2023-04-03T05:16:48;40.15;;;8.55;;
77868;SDS011;67231;59.144;37.934;2023-04-03T05:19:19;21.23;;;3.15;;
77868;SDS011;67231;59.144;37.934;2023-04-03T05:21:46;41.42;;;8.88;;
77868;SDS011;67231;59.144;37.934;2023-04-03T05:24:15;37.17;;;6.93;;
77868;SDS011;67231;59.144;37.934;2023-04-03T05:26:43;67.57;;;18.48;;
77868;SDS011;67231;59.144;37.934;2023-04-03T05:29:11;73.00;;;16.73;;
77868;SDS011;67231;59.144;37.934;2023-04-03T05:31:37;112.85;;;27.70;;
77868;SDS011;67231;59.144;37.934;2023-04-03T05:34:06;60.60;;;15.45;;
77868;SDS011;67231;59.144;37.934;2023-04-03T05:36:35;27.48;;;5.60;;
77868;SDS011;67231;59.144;37.934;2023-04-03T05:39:05;22.13;;;3.92;;
77868;SDS011;67231;59.144;37.934;2023-04-03T05:41:34;20.77;;;5.93;;
77868;SDS011;67231;59.144;37.934;2023-04-03T05:44:01;29.33;;;4.47;;
77868;SDS011;67231;59.144;37.934;2023-04-03T05:46:27;12.95;;;4.00;;
77868;SDS011;67231;59.144;37.934;2023-04-03T05:48:55;30.33;;;4.53;;
77868;SDS011;67231;59.144;37.934;2023-04-03T05:51:28;24.50;;;5.20;;
77868;SDS011;67231;59.144;37.934;2023-04-03T05:54:03;20.52;;;4.45;;
77868;SDS011;67231;59.144;37.934;2023-04-03T05:56:35;21.27;;;4.10;;
77868;SDS011;67231;59.144;37.934;2023-04-03T05:59:01;22.08;;;4.90;;
77868;SDS011;67231;59.144;37.934;2023-04-03T06:01:28;17.85;;;3.50;;
77868;SDS011;67231;59.144;37.934;2023-04-03T06:03:55;16.08;;;3.33;;
77868;SDS011;67231;59.144;37.934;2023-04-03T06:06:24;27.73;;;3.83;;
77868;SDS011;67231;59.144;37.934;2023-04-03T06:08:50;14.48;;;4.10;;
77868;SDS011;67231;59.144;37.934;2023-04-03T06:11:17;17.48;;;3.13;;
77868;SDS011;67231;59.144;37.934;2023-04-03T06:13:43;16.45;;;2.92;;
77868;SDS011;67231;59.144;37.934;2023-04-03T06:16:11;19.67;;;5.05;;
77868;SDS011;67231;59.144;37.934;2023-04-03T06:18:41;14.45;;;3.15;;
77868;SDS011;67231;59.144;37.934;2023-04-03T06:21:08;12.43;;;3.90;;
77868;SDS011;67231;59.144;37.934;2023-04-03T06:23:34;19.52;;;6.20;;
77868;SDS011;67231;59.144;37.934;2023-04-03T06:26:01;16.98;;;4.53;;
77868;SDS011;67231;59.144;37.934;2023-04-03T06:28:27;25.65;;;5.97;;
77868;SDS011;67231;59.144;37.934;2023-04-03T06:30:53;11.43;;;3.53;;
77868;SDS011;67231;59.144;37.934;2023-04-03T06:33:19;13.07;;;3.55;;
77868;SDS011;67231;59.144;37.934;2023-04-03T06:35:45;9.40;;;2.65;;
77868;SDS011;67231;59.144;37.934;2023-04-03T06:38:11;10.77;;;3.00;;
77868;SDS011;67231;59.144;37.934;2023-04-03T06:40:38;5.15;;;2.17;;
77868;SDS011;67231;59.144;37.934;2023-04-03T06:43:04;12.30;;;4.18;;
77868;SDS011;67231;59.144;37.934;2023-04-03T06:45:31;15.73;;;3.92;;
77868;SDS011;67231;59.144;37.934;2023-04-03T06:47:57;13.05;;;4.78;;
77868;SDS011;67231;59.144;37.934;2023-04-03T06:50:23;15.32;;;4.43;;
77868;SDS011;67231;59.144;37.934;2023-04-03T06:52:50;11.80;;;4.20;;
77868;SDS011;67231;59.144;37.934;2023-04-03T06:55:16;18.95;;;3.88;;
77868;SDS011;67231;59.144;37.934;2023-04-03T06:57:43;16.38;;;6.05;;
77868;SDS011;67231;59.144;37.934;2023-04-03T07:00:10;15.13;;;5.20;;
77868;SDS011;67231;59.144;37.934;2023-04-03T07:02:37;15.68;;;5.68;;
77868;SDS011;67231;59.144;37.934;2023-04-03T07:05:04;23.27;;;8.30;;
77868;SDS011;67231;59.144;37.934;2023-04-03T07:07:31;16.15;;;6.43;;
77868;SDS011;67231;59.144;37.934;2023-04-03T07:10:00;8.75;;;3.72;;
77868;SDS011;67231;59.144;37.934;2023-04-03T07:12:26;13.27;;;4.70;;
77868;SDS011;67231;59.144;37.934;2023-04-03T07:14:52;23.13;;;7.30;;
77868;SDS011;67231;59.144;37.934;2023-04-03T07:17:19;17.73;;;7.43;;
77868;SDS011;67231;59.144;37.934;2023-04-03T07:19:45;21.27;;;8.40;;
77868;SDS011;67231;59.144;37.934;2023-04-03T07:22:12;33.50;;;11.95;;
77868;SDS011;67231;59.144;37.934;2023-04-03T07:24:38;21.17;;;7.93;;
77868;SDS011;67231;59.144;37.934;2023-04-03T07:27:05;25.23;;;8.15;;
77868;SDS011;67231;59.144;37.934;2023-04-03T07:29:31;17.63;;;5.55;;
77868;SDS011;67231;59.144;37.934;2023-04-03T07:31:58;16.15;;;4.43;;
77868;SDS011;67231;59.144;37.934;2023-04-03T07:34:24;22.60;;;7.00;;
77868;SDS011;67231;59.144;37.934;2023-04-03T07:36:51;15.02;;;5.15;;
77868;SDS011;67231;59.144;37.934;2023-04-03T07:39:17;18.52;;;5.75;;
77868;SDS011;67231;59.144;37.934;2023-04-03T07:41:43;31.15;;;9.70;;
77868;SDS011;67231;59.144;37.934;2023-04-03T07:44:10;21.25;;;7.97;;
77868;SDS011;67231;59.144;37.934;2023-04-03T07:46:37;19.92;;;7.60;;
77868;SDS011;67231;59.144;37.934;2023-04-03T07:49:04;20.48;;;8.15;;
77868;SDS011;67231;59.144;37.934;2023-04-03T07:51:30;21.60;;;7.63;;
77868;SDS011;67231;59.144;37.934;2023-04-03T07:53:57;27.13;;;10.00;;
77868;SDS011;67231;59.144;37.934;2023-04-03T07:56:23;27.92;;;12.75;;
77868;SDS011;67231;59.144;37.934;2023-04-03T07:58:51;30.85;;;11.15;;
77868;SDS011;67231;59.144;37.934;2023-04-03T08:01:17;30.45;;;10.50;;
77868;SDS011;67231;59.144;37.934;2023-04-03T08:03:43;20.13;;;7.90;;
77868;SDS011;67231;59.144;37.934;2023-04-03T08:06:10;30.92;;;11.18;;
77868;SDS011;67231;59.144;37.934;2023-04-03T08:08:36;22.67;;;7.10;;
77868;SDS011;67231;59.144;37.934;2023-04-03T08:11:03;21.48;;;7.82;;
77868;SDS011;67231;59.144;37.934;2023-04-03T08:13:31;27.77;;;10.73;;
77868;SDS011;67231;59.144;37.934;2023-04-03T08:15:58;17.92;;;5.78;;
77868;SDS011;67231;59.144;37.934;2023-04-03T08:18:32;28.83;;;8.82;;
77868;SDS011;67231;59.144;37.934;2023-04-03T08:20:58;23.15;;;6.50;;
77868;SDS011;67231;59.144;37.934;2023-04-03T08:23:25;40.03;;;10.68;;
77868;SDS011;67231;59.144;37.934;2023-04-03T08:25:52;56.40;;;15.90;;
77868;SDS011;67231;59.144;37.934;2023-04-03T08:28:18;24.70;;;8.32;;
77868;SDS011;67231;59.144;37.934;2023-04-03T08:30:45;14.27;;;3.80;;
77868;SDS011;67231;59.144;37.934;2023-04-03T08:33:11;45.65;;;15.15;;
77868;SDS011;67231;59.144;37.934;2023-04-03T08:35:39;25.45;;;9.27;;
77868;SDS011;67231;59.144;37.934;2023-04-03T08:38:06;19.52;;;6.88;;
77868;SDS011;67231;59.144;37.934;2023-04-03T08:40:33;13.57;;;4.55;;
77868;SDS011;67231;59.144;37.934;2023-04-03T08:45:55;8.70;;;3.33;;
77868;SDS011;67231;59.144;37.934;2023-04-03T08:48:31;12.38;;;3.95;;
77868;SDS011;67231;59.144;37.934;2023-04-03T08:51:03;9.50;;;3.08;;
77868;SDS011;67231;59.144;37.934;2023-04-03T08:53:39;7.70;;;3.00;;
77868;SDS011;67231;59.144;37.934;2023-04-03T08:56:08;10.30;;;3.22;;
77868;SDS011;67231;59.144;37.934;2023-04-03T08:58:41;10.10;;;3.30;;
77868;SDS011;67231;59.144;37.934;2023-04-03T09:01:19;11.82;;;4.07;;
77868;SDS011;67231;59.144;37.934;2023-04-03T09:03:48;10.30;;;4.45;;
77868;SDS011;67231;59.144;37.934;2023-04-03T09:06:23;12.50;;;4.43;;
77868;SDS011;67231;59.144;37.934;2023-04-03T09:14:18;17.77;;;8.35;;
77868;SDS011;67231;59.144;37.934;2023-04-03T09:17:36;11.95;;;5.15;;
77868;SDS011;67231;59.144;37.934;2023-04-03T09:20:38;9.68;;;3.92;;
77868;SDS011;67231;59.144;37.934;2023-04-03T09:23:03;8.02;;;3.75;;
77868;SDS011;67231;59.144;37.934;2023-04-03T09:25:53;8.80;;;3.85;;
77868;SDS011;67231;59.144;37.934;2023-04-03T09:28:27;8.20;;;3.38;;
77868;SDS011;67231;59.144;37.934;2023-04-03T09:30:56;6.40;;;2.80;;
77868;SDS011;67231;59.144;37.934;2023-04-03T09:33:22;16.35;;;6.40;;
77868;SDS011;67231;59.144;37.934;2023-04-03T09:35:49;23.00;;;9.82;;
77868;SDS011;67231;59.144;37.934;2023-04-03T09:38:18;21.48;;;9.48;;
77868;SDS011;67231;59.144;37.934;2023-04-03T09:41:02;39.88;;;14.38;;
77868;SDS011;67231;59.144;37.934;2023-04-03T09:43:32;24.73;;;10.40;;
77868;SDS011;67231;59.144;37.934;2023-04-03T09:49:04;15.35;;;6.70;;
77868;SDS011;67231;59.144;37.934;2023-04-03T09:51:32;14.70;;;6.13;;
77868;SDS011;67231;59.144;37.934;2023-04-03T09:53:58;24.08;;;11.10;;
77868;SDS011;67231;59.144;37.934;2023-04-03T09:56:26;13.82;;;7.07;;
77868;SDS011;67231;59.144;37.934;2023-04-03T10:01:33;19.30;;;7.28;;
77868;SDS011;67231;59.144;37.934;2023-04-03T10:04:03;11.85;;;4.32;;
77868;SDS011;67231;59.144;37.934;2023-04-03T10:06:41;13.63;;;6.20;;
77868;SDS011;67231;59.144;37.934;2023-04-03T10:09:47;15.30;;;7.05;;
77868;SDS011;67231;59.144;37.934;2023-04-03T10:12:09;13.02;;;7.25;;
77868;SDS011;67231;59.144;37.934;2023-04-03T10:22:50;14.30;;;6.40;;
77868;SDS011;67231;59.144;37.934;2023-04-03T10:28:05;20.23;;;9.75;;
77868;SDS011;67231;59.144;37.934;2023-04-03T10:30:44;21.85;;;6.00;;
77868;SDS011;67231;59.144;37.934;2023-04-03T10:39:09;31.80;;;12.35;;
77868;SDS011;67231;59.144;37.934;2023-04-03T10:44:29;12.75;;;4.68;;
77868;SDS011;67231;59.144;37.934;2023-04-03T10:50:30;16.85;;;6.80;;
77868;SDS011;67231;59.144;37.934;2023-04-03T10:55:34;29.73;;;9.93;;
77868;SDS011;67231;59.144;37.934;2023-04-03T10:58:16;10.00;;;4.88;;
77868;SDS011;67231;59.144;37.934;2023-04-03T11:00:50;9.05;;;4.25;;
77868;SDS011;67231;59.144;37.934;2023-04-03T11:03:39;10.20;;;3.90;;
77868;SDS011;67231;59.144;37.934;2023-04-03T11:06:11;5.80;;;2.92;;
77868;SDS011;67231;59.144;37.934;2023-04-03T11:11:24;6.70;;;3.35;;
77868;SDS011;67231;59.144;37.934;2023-04-03T11:17:06;8.10;;;3.50;;
77868;SDS011;67231;59.144;37.934;2023-04-03T11:19:52;9.52;;;3.28;;
77868;SDS011;67231;59.144;37.934;2023-04-03T11:22:30;7.28;;;3.10;;
77868;SDS011;67231;59.144;37.934;2023-04-03T11:27:42;14.07;;;5.82;;
77868;SDS011;67231;59.144;37.934;2023-04-03T11:30:45;9.13;;;4.30;;
77868;SDS011;67231;59.144;37.934;2023-04-03T11:33:20;10.90;;;4.32;;
77868;SDS011;67231;59.144;37.934;2023-04-03T11:35:51;7.22;;;3.90;;
77868;SDS011;67231;59.144;37.934;2023-04-03T11:38:26;9.98;;;4.13;;
77868;SDS011;67231;59.144;37.934;2023-04-03T11:40:56;10.02;;;4.70;;
77868;SDS011;67231;59.144;37.934;2023-04-03T11:43:25;11.60;;;4.57;;
77868;SDS011;67231;59.144;37.934;2023-04-03T11:45:57;8.40;;;3.88;;
77868;SDS011;67231;59.144;37.934;2023-04-03T11:50:55;10.23;;;4.70;;
77868;SDS011;67231;59.144;37.934;2023-04-03T11:53:29;8.93;;;4.30;;
77868;SDS011;67231;59.144;37.934;2023-04-03T11:55:57;11.40;;;4.75;;
77868;SDS011;67231;59.144;37.934;2023-04-03T11:58:27;8.43;;;3.75;;
77868;SDS011;67231;59.144;37.934;2023-04-03T12:00:59;8.40;;;3.80;;
77868;SDS011;67231;59.144;37.934;2023-04-03T12:16:28;10.27;;;4.30;;
77868;SDS011;67231;59.144;37.934;2023-04-03T12:18:56;10.30;;;4.50;;
77868;SDS011;67231;59.144;37.934;2023-04-03T12:23:56;8.27;;;4.20;;
77868;SDS011;67231;59.144;37.934;2023-04-03T12:28:58;11.02;;;4.50;;
77868;SDS011;67231;59.144;37.934;2023-04-03T12:31:33;11.85;;;5.68;;
77868;SDS011;67231;59.144;37.934;2023-04-03T12:34:14;15.50;;;6.88;;
77868;SDS011;67231;59.144;37.934;2023-04-03T12:39:25;14.20;;;5.40;;
77868;SDS011;67231;59.144;37.934;2023-04-03T12:47:34;10.43;;;5.50;;
77868;SDS011;67231;59.144;37.934;2023-04-03T12:50:04;12.18;;;4.65;;
77868;SDS011;67231;59.144;37.934;2023-04-03T12:52:54;11.35;;;5.40;;
77868;SDS011;67231;59.144;37.934;2023-04-03T12:55:22;11.68;;;4.60;;
77868;SDS011;67231;59.144;37.934;2023-04-03T12:57:48;11.38;;;6.13;;
77868;SDS011;67231;59.144;37.934;2023-04-03T13:00:22;8.52;;;4.10;;
77868;SDS011;67231;59.144;37.934;2023-04-03T13:02:48;8.23;;;4.30;;
77868;SDS011;67231;59.144;37.934;2023-04-03T13:05:17;11.80;;;5.88;;
77868;SDS011;67231;59.144;37.934;2023-04-03T13:07:49;15.00;;;6.50;;
77868;SDS011;67231;59.144;37.934;2023-04-03T13:10:22;16.45;;;7.22;;
77868;SDS011;67231;59.144;37.934;2023-04-03T13:15:22;11.90;;;6.05;;
77868;SDS011;67231;59.144;37.934;2023-04-03T13:17:48;13.63;;;7.43;;
77868;SDS011;67231;59.144;37.934;2023-04-03T13:22:52;20.05;;;9.18;;
77868;SDS011;67231;59.144;37.934;2023-04-03T13:25:29;14.35;;;7.32;;
77868;SDS011;67231;59.144;37.934;2023-04-03T13:27:59;13.15;;;6.82;;
77868;SDS011;67231;59.144;37.934;2023-04-03T13:30:36;11.60;;;6.03;;
77868;SDS011;67231;59.144;37.934;2023-04-03T13:33:06;11.25;;;5.35;;
77868;SDS011;67231;59.144;37.934;2023-04-03T13:35:48;13.45;;;6.32;;
77868;SDS011;67231;59.144;37.934;2023-04-03T13:38:39;12.60;;;5.93;;
77868;SDS011;67231;59.144;37.934;2023-04-03T13:41:21;13.75;;;6.05;;
77868;SDS011;67231;59.144;37.934;2023-04-03T13:43:56;16.15;;;6.78;;
77868;SDS011;67231;59.144;37.934;2023-04-03T13:46:24;12.50;;;5.38;;
77868;SDS011;67231;59.144;37.934;2023-04-03T13:48:54;13.48;;;6.38;;
77868;SDS011;67231;59.144;37.934;2023-04-03T13:51:26;12.02;;;5.10;;
77868;SDS011;67231;59.144;37.934;2023-04-03T13:56:37;16.20;;;6.07;;
77868;SDS011;67231;59.144;37.934;2023-04-03T14:01:40;13.43;;;5.60;;
77868;SDS011;67231;59.144;37.934;2023-04-03T14:06:53;25.35;;;7.93;;
77868;SDS011;67231;59.144;37.934;2023-04-03T14:09:21;18.75;;;6.35;;
77868;SDS011;67231;59.144;37.934;2023-04-03T14:11:49;20.00;;;7.88;;
77868;SDS011;67231;59.144;37.934;2023-04-03T14:14:20;15.90;;;7.05;;
77868;SDS011;67231;59.144;37.934;2023-04-03T14:16:51;12.52;;;6.07;;
77868;SDS011;67231;59.144;37.934;2023-04-03T14:19:24;11.77;;;6.22;;
77868;SDS011;67231;59.144;37.934;2023-04-03T14:21:52;10.65;;;5.65;;
77868;SDS011;67231;59.144;37.934;2023-04-03T14:24:21;14.63;;;6.43;;
77868;SDS011;67231;59.144;37.934;2023-04-03T14:26:52;12.85;;;6.50;;
77868;SDS011;67231;59.144;37.934;2023-04-03T14:29:20;14.27;;;7.38;;
77868;SDS011;67231;59.144;37.934;2023-04-03T14:31:47;12.20;;;5.85;;
77868;SDS011;67231;59.144;37.934;2023-04-03T14:34:15;14.35;;;6.05;;
77868;SDS011;67231;59.144;37.934;2023-04-03T14:36:43;14.38;;;5.82;;
77868;SDS011;67231;59.144;37.934;2023-04-03T14:39:11;14.52;;;7.28;;
77868;SDS011;67231;59.144;37.934;2023-04-03T14:41:43;14.32;;;5.45;;
77868;SDS011;67231;59.144;37.934;2023-04-03T14:44:11;9.13;;;5.07;;
77868;SDS011;67231;59.144;37.934;2023-04-03T14:46:38;14.13;;;5.47;;
77868;SDS011;67231;59.144;37.934;2023-04-03T14:49:15;10.52;;;4.68;;
77868;SDS011;67231;59.144;37.934;2023-04-03T14:51:46;14.90;;;5.53;;
77868;SDS011;67231;59.144;37.934;2023-04-03T14:54:18;11.82;;;5.38;;
77868;SDS011;67231;59.144;37.934;2023-04-03T14:56:51;14.05;;;5.95;;
77868;SDS011;67231;59.144;37.934;2023-04-03T14:59:18;41.45;;;6.72;;
77868;SDS011;67231;59.144;37.934;2023-04-03T15:01:45;17.55;;;6.43;;
77868;SDS011;67231;59.144;37.934;2023-04-03T15:04:12;19.88;;;5.18;;
77868;SDS011;67231;59.144;37.934;2023-04-03T15:06:43;17.33;;;5.50;;
77868;SDS011;67231;59.144;37.934;2023-04-03T15:09:23;21.30;;;5.95;;
77868;SDS011;67231;59.144;37.934;2023-04-03T15:11:52;18.55;;;5.65;;
77868;SDS011;67231;59.144;37.934;2023-04-03T15:14:20;21.55;;;6.32;;
77868;SDS011;67231;59.144;37.934;2023-04-03T15:16:47;27.88;;;5.97;;
77868;SDS011;67231;59.144;37.934;2023-04-03T15:19:14;21.38;;;6.35;;
77868;SDS011;67231;59.144;37.934;2023-04-03T15:21:40;22.77;;;6.07;;
77868;SDS011;67231;59.144;37.934;2023-04-03T15:24:08;25.58;;;6.68;;
77868;SDS011;67231;59.144;37.934;2023-04-03T15:26:35;24.13;;;6.35;;
77868;SDS011;67231;59.144;37.934;2023-04-03T15:29:01;32.90;;;5.32;;
77868;SDS011;67231;59.144;37.934;2023-04-03T15:31:27;21.65;;;5.70;;
77868;SDS011;67231;59.144;37.934;2023-04-03T15:33:54;45.25;;;5.68;;
77868;SDS011;67231;59.144;37.934;2023-04-03T15:36:20;27.33;;;5.55;;
77868;SDS011;67231;59.144;37.934;2023-04-03T15:38:46;38.67;;;5.57;;
77868;SDS011;67231;59.144;37.934;2023-04-03T15:41:12;36.50;;;5.35;;
77868;SDS011;67231;59.144;37.934;2023-04-03T15:43:39;32.67;;;4.72;;
77868;SDS011;67231;59.144;37.934;2023-04-03T15:46:05;23.40;;;4.75;;
77868;SDS011;67231;59.144;37.934;2023-04-03T15:48:31;33.60;;;5.30;;
77868;SDS011;67231;59.144;37.934;2023-04-03T15:50:58;48.90;;;5.38;;
77868;SDS011;67231;59.144;37.934;2023-04-03T15:53:26;31.75;;;5.72;;
77868;SDS011;67231;59.144;37.934;2023-04-03T15:55:52;44.80;;;5.50;;
77868;SDS011;67231;59.144;37.934;2023-04-03T15:58:18;37.53;;;5.60;;
77868;SDS011;67231;59.144;37.934;2023-04-03T16:00:45;32.83;;;5.75;;
77868;SDS011;67231;59.144;37.934;2023-04-03T16:03:12;33.35;;;4.05;;
77868;SDS011;67231;59.144;37.934;2023-04-03T16:05:42;29.15;;;4.88;;
77868;SDS011;67231;59.144;37.934;2023-04-03T16:08:09;42.05;;;4.68;;
77868;SDS011;67231;59.144;37.934;2023-04-03T16:10:36;31.10;;;4.60;;
77868;SDS011;67231;59.144;37.934;2023-04-03T16:13:03;27.00;;;4.75;;
77868;SDS011;67231;59.144;37.934;2023-04-03T16:15:30;15.65;;;3.60;;
77868;SDS011;67231;59.144;37.934;2023-04-03T16:17:57;31.20;;;5.00;;